logo
Rechercher aéroport 
image banner adimage banner adimage banner ad
image banner ad

VLSP - Sepon Domestic (Private)

Situé à Vilabouly, Lao People's Democratic Republic

ICAO - , IATA -

Données fournies par Airmate  

Information générale

Coordonnées: N16°57'33" E105°58'54"
Élévation : 703 feet MSL.
 
Voir autres Aéroports à Khammouan

Données opérationnelles

Special qualification required
Heure actuelle UTC:
Heure actuelle locale:
Météo à : - ( 0 km )
METAR: KATL 110552Z 32015KT 10SM FEW025 03/M01 A2998 RMK AO2 SLP154 60000 T00281011 10072 20028 53018
TAF: KATL 110533Z 1106/1212 32012G25KT P6SM FEW025 FM110800 32013KT P6SM FEW025 FM111600 32010KT P6SM SKC FM120000 32006KT P6SM SKC
Voir NOTAMs / SUP AIP / TFR affectant cet aéroport [VIEW]
Fréquences de communication: [VIEW]

Pistes:

Identifiant RWYQFULongueur (ft)Largeur (ft)SurfaceLDA (ft)
0554°412459UNK
23234°412459UNK

Coordonnées de l'aéroport

Adresse: Vilabouly Lao People's Democratic Republic

Vue satellite de VLSP